createdAt,value
2022-08-28T00:01:57.410Z,53.07
2022-08-28T00:04:24.135Z,53.01
2022-08-28T00:06:50.826Z,53.10
2022-08-28T00:09:17.393Z,52.56
2022-08-28T00:11:43.891Z,52.59
2022-08-28T00:14:11.079Z,52.74
2022-08-28T00:16:37.642Z,52.91
2022-08-28T00:19:05.730Z,52.92
2022-08-28T00:21:32.706Z,52.83
2022-08-28T00:24:00.444Z,52.53
2022-08-28T00:26:27.030Z,53.36
2022-08-28T00:28:53.535Z,53.60
2022-08-28T00:31:20.036Z,53.47
2022-08-28T00:33:48.182Z,53.34
2022-08-28T00:36:14.809Z,53.86
2022-08-28T00:38:41.326Z,53.68
2022-08-28T00:41:09.007Z,53.69
2022-08-28T00:43:42.433Z,53.88
2022-08-28T00:46:13.332Z,54.18
2022-08-28T00:48:40.193Z,54.01
2022-08-28T00:51:07.910Z,54.30
2022-08-28T00:53:34.560Z,54.27
2022-08-28T00:56:13.333Z,54.03
2022-08-28T00:58:44.845Z,54.51
2022-08-28T01:01:13.429Z,54.39
2022-08-28T01:03:41.113Z,54.82
2022-08-28T01:06:10.101Z,54.76
2022-08-28T01:08:42.397Z,54.99
2022-08-28T01:11:10.607Z,55.21
2022-08-28T01:13:41.119Z,55.69
2022-08-28T01:16:08.926Z,55.66
2022-08-28T01:18:35.582Z,56.14
2022-08-28T01:21:07.819Z,55.69
2022-08-28T01:23:54.015Z,55.58
2022-08-28T01:26:22.004Z,55.87
2022-08-28T01:28:48.705Z,55.87
2022-08-28T01:31:16.839Z,55.93
2022-08-28T01:33:45.210Z,55.98
2022-08-28T01:36:14.651Z,56.42
2022-08-28T01:38:45.106Z,56.70
2022-08-28T01:41:12.634Z,56.50
2022-08-28T01:43:40.289Z,57.15
2022-08-28T01:46:07.089Z,57.13
2022-08-28T01:48:37.022Z,57.35
2022-08-28T01:51:05.254Z,57.31
2022-08-28T01:53:33.546Z,57.61
2022-08-28T01:56:04.634Z,57.23
2022-08-28T01:58:34.911Z,57.36
2022-08-28T02:01:10.138Z,58.22
2022-08-28T02:03:37.143Z,58.01
2022-08-28T02:06:03.900Z,58.93
2022-08-28T02:08:30.378Z,58.63
2022-08-28T02:10:56.877Z,58.54
2022-08-28T02:13:23.423Z,58.91
2022-08-28T02:15:52.443Z,58.95
2022-08-28T02:18:19.464Z,58.88
2022-08-28T02:20:46.093Z,58.96
2022-08-28T02:23:12.679Z,59.09
2022-08-28T02:25:39.265Z,59.62
2022-08-28T02:28:05.877Z,59.07
2022-08-28T02:30:32.498Z,60.35
2022-08-28T02:32:59.021Z,60.13
2022-08-28T02:35:25.539Z,62.12
2022-08-28T02:37:54.582Z,62.18
2022-08-28T02:40:24.440Z,63.35
2022-08-28T02:42:51.389Z,61.98
2022-08-28T02:45:18.981Z,64.56
2022-08-28T02:47:46.738Z,64.26
2022-08-28T02:50:17.400Z,63.41
2022-08-28T02:52:43.907Z,64.49
2022-08-28T02:55:13.295Z,65.76
2022-08-28T02:57:39.857Z,67.29
2022-08-28T03:00:09.376Z,67.06
2022-08-28T03:02:35.939Z,67.24
2022-08-28T03:05:03.221Z,66.34
2022-08-28T03:07:29.737Z,66.11
2022-08-28T03:09:56.742Z,66.09
2022-08-28T03:12:23.280Z,64.74
2022-08-28T03:14:54.386Z,63.88
2022-08-28T03:17:21.203Z,64.22
2022-08-28T03:19:48.557Z,64.40
2022-08-28T03:22:15.192Z,65.08
2022-08-28T03:24:41.675Z,65.25
2022-08-28T03:27:08.254Z,65.32
2022-08-28T03:29:35.038Z,65.59
2022-08-28T03:32:01.626Z,65.49
2022-08-28T03:34:28.125Z,66.52
2022-08-28T03:36:54.699Z,67.02
2022-08-28T03:39:21.299Z,67.50
2022-08-28T03:41:47.812Z,68.79
2022-08-28T03:44:14.314Z,68.38
2022-08-28T03:46:40.883Z,68.96
2022-08-28T03:49:07.377Z,69.58
2022-08-28T03:51:34.864Z,72.74
2022-08-28T03:54:04.198Z,72.75
2022-08-28T03:56:31.130Z,73.17
2022-08-28T03:59:01.029Z,72.48
2022-08-28T04:01:27.966Z,73.11
2022-08-28T04:03:55.878Z,73.07
2022-08-28T04:06:22.388Z,73.22
2022-08-28T04:08:48.892Z,73.14
2022-08-28T04:11:15.379Z,73.41
2022-08-28T04:13:41.874Z,72.64
2022-08-28T04:16:11.518Z,72.66
2022-08-28T04:18:40.483Z,72.25
2022-08-28T04:21:13.067Z,72.81
2022-08-28T04:23:41.807Z,74.07
2022-08-28T04:26:11.795Z,74.61
2022-08-28T04:28:38.274Z,74.49
2022-08-28T04:31:05.927Z,72.93
2022-08-28T04:33:32.432Z,73.67
2022-08-28T04:36:07.425Z,75.26
2022-08-28T04:38:33.968Z,74.72
2022-08-28T04:41:04.841Z,73.36
2022-08-28T04:43:31.387Z,74.76
2022-08-28T04:45:58.343Z,73.97
2022-08-28T04:48:24.883Z,75.00
2022-08-28T04:50:51.403Z,76.60
2022-08-28T04:53:19.820Z,77.02
2022-08-28T04:55:55.078Z,78.13
2022-08-28T04:58:24.092Z,77.32
2022-08-28T05:00:53.241Z,75.58
2022-08-28T05:03:20.934Z,76.01
2022-08-28T05:05:51.102Z,75.13
2022-08-28T05:08:20.763Z,75.44
2022-08-28T05:10:47.931Z,75.60
2022-08-28T05:13:15.979Z,76.35
2022-08-28T05:15:44.986Z,77.29
2022-08-28T05:18:12.877Z,76.69
2022-08-28T05:20:43.532Z,76.12
2022-08-28T05:23:10.949Z,76.60
2022-08-28T05:25:40.263Z,76.96
2022-08-28T05:28:11.784Z,75.94
2022-08-28T05:30:40.930Z,76.08
2022-08-28T05:33:08.952Z,78.32
2022-08-28T05:35:38.629Z,78.28
2022-08-28T05:38:07.114Z,77.83
2022-08-28T05:40:34.504Z,78.60
2022-08-28T05:43:01.069Z,77.72
2022-08-28T05:45:27.695Z,78.25
2022-08-28T05:47:54.199Z,77.03
2022-08-28T05:50:20.740Z,75.12
2022-08-28T05:52:47.284Z,74.38
2022-08-28T05:55:13.927Z,74.68
2022-08-28T05:57:40.997Z,75.06
2022-08-28T06:00:09.459Z,75.86
2022-08-28T06:02:35.970Z,77.41
2022-08-28T06:05:02.512Z,76.26
2022-08-28T06:07:29.007Z,73.94
2022-08-28T06:09:55.889Z,73.23
2022-08-28T06:12:22.395Z,71.41
2022-08-28T06:14:49.214Z,71.83
2022-08-28T06:17:16.546Z,71.86
2022-08-28T06:19:50.021Z,71.07
2022-08-28T06:22:16.543Z,69.45
2022-08-28T06:24:43.041Z,69.35
2022-08-28T06:27:09.522Z,68.32
2022-08-28T06:29:36.057Z,69.12
2022-08-28T06:32:03.272Z,69.51
2022-08-28T06:34:30.190Z,69.31
2022-08-28T06:36:56.703Z,67.43
2022-08-28T06:39:23.398Z,68.85
2022-08-28T06:41:49.935Z,67.14
2022-08-28T06:44:19.357Z,66.34
2022-08-28T06:46:49.056Z,65.67
2022-08-28T06:49:15.608Z,64.46
2022-08-28T06:51:42.088Z,63.67
2022-08-28T06:54:08.837Z,63.86
2022-08-28T06:56:35.738Z,62.64
2022-08-28T06:59:02.427Z,62.22
2022-08-28T07:01:35.044Z,61.58
2022-08-28T07:04:05.213Z,61.09
2022-08-28T07:06:35.638Z,61.56
2022-08-28T07:09:05.142Z,60.93
2022-08-28T07:11:34.365Z,61.52
2022-08-28T07:14:02.173Z,61.42
2022-08-28T07:16:36.482Z,61.09
2022-08-28T07:19:03.004Z,60.54
2022-08-28T07:21:29.567Z,59.63
2022-08-28T07:23:56.041Z,59.25
2022-08-28T07:26:24.941Z,59.03
2022-08-28T07:28:53.261Z,58.10
2022-08-28T07:31:36.473Z,58.15
2022-08-28T07:34:03.096Z,57.59
2022-08-28T07:36:30.167Z,57.84
2022-08-28T07:38:59.396Z,57.69
2022-08-28T07:41:30.345Z,56.87
2022-08-28T07:43:56.970Z,56.55
2022-08-28T07:46:23.515Z,56.25
2022-08-28T07:48:50.018Z,55.93
2022-08-28T07:51:16.503Z,55.57
2022-08-28T07:53:43.004Z,55.17
2022-08-28T07:56:09.493Z,55.06
2022-08-28T07:58:36.008Z,55.22
2022-08-28T08:01:02.545Z,54.88
2022-08-28T08:03:30.763Z,55.30
2022-08-28T08:06:04.514Z,55.73
2022-08-28T08:08:33.172Z,55.67
2022-08-28T08:11:16.566Z,55.37
2022-08-28T08:13:46.009Z,56.00
2022-08-28T08:16:19.468Z,55.83
2022-08-28T08:18:46.266Z,54.95
2022-08-28T08:21:15.213Z,56.21
2022-08-28T08:23:42.157Z,57.63
2022-08-28T08:26:15.805Z,56.57
2022-08-28T08:28:43.468Z,56.20
2022-08-28T08:31:20.103Z,55.45
2022-08-28T08:33:50.090Z,55.07
2022-08-28T08:36:20.818Z,56.05
2022-08-28T08:38:47.492Z,56.63
2022-08-28T08:41:23.227Z,55.20
2022-08-28T08:44:13.559Z,55.42
2022-08-28T08:47:08.613Z,54.56
2022-08-28T08:49:41.724Z,54.70
2022-08-28T08:52:26.644Z,55.19
2022-08-28T08:55:08.064Z,55.95
2022-08-28T08:57:38.113Z,57.19
2022-08-28T09:00:15.073Z,57.66
2022-08-28T09:03:13.079Z,57.17
2022-08-28T09:05:47.115Z,58.39
2022-08-28T09:08:25.311Z,58.56
2022-08-28T09:11:00.522Z,58.35
2022-08-28T09:13:54.595Z,58.21
2022-08-28T09:16:30.956Z,57.51
2022-08-28T09:19:00.178Z,57.70
2022-08-28T09:21:30.650Z,57.03
2022-08-28T09:24:02.050Z,57.57
2022-08-28T09:26:35.765Z,58.04
2022-08-28T09:29:06.677Z,57.89
2022-08-28T09:31:39.455Z,56.76
2022-08-28T09:34:35.444Z,55.55
2022-08-28T09:37:07.498Z,54.65
2022-08-28T09:39:34.340Z,54.15
2022-08-28T09:42:06.087Z,54.97
2022-08-28T09:44:32.754Z,56.73
2022-08-28T09:46:59.675Z,56.54
2022-08-28T09:49:29.752Z,56.44
2022-08-28T09:51:58.662Z,56.11
2022-08-28T09:54:42.216Z,56.08
2022-08-28T09:57:08.772Z,55.50
2022-08-28T09:59:35.267Z,54.10
2022-08-28T10:02:30.108Z,53.84
2022-08-28T10:05:00.163Z,54.19
2022-08-28T10:07:41.603Z,55.39
2022-08-28T10:10:26.216Z,55.93
2022-08-28T10:13:22.985Z,54.61
2022-08-28T10:16:13.012Z,55.07
2022-08-28T10:18:55.976Z,54.94
2022-08-28T10:21:38.899Z,54.10
2022-08-28T10:24:14.359Z,54.76
2022-08-28T10:27:02.459Z,55.53
2022-08-28T10:29:40.836Z,55.38
2022-08-28T10:32:48.896Z,56.38
2022-08-28T10:35:22.890Z,58.42
2022-08-28T10:38:11.384Z,58.60
2022-08-28T10:40:53.856Z,60.39
2022-08-28T10:43:38.538Z,60.41
2022-08-28T10:46:13.339Z,60.53
2022-08-28T10:48:44.564Z,59.51
2022-08-28T10:51:34.949Z,57.80
2022-08-28T10:54:32.770Z,56.37
2022-08-28T10:57:29.446Z,55.18
2022-08-28T10:59:55.971Z,53.14
2022-08-28T11:02:26.824Z,52.96
2022-08-28T11:04:58.664Z,52.74
2022-08-28T11:07:35.830Z,53.01
2022-08-28T11:10:23.770Z,52.04
2022-08-28T11:12:52.296Z,50.97
2022-08-28T11:15:34.251Z,50.29
2022-08-28T11:18:15.097Z,49.80
2022-08-28T11:21:09.648Z,48.97
2022-08-28T11:23:52.608Z,48.48
2022-08-28T11:26:37.678Z,49.19
2022-08-28T11:29:04.300Z,48.06
2022-08-28T11:31:35.257Z,49.10
2022-08-28T11:34:01.852Z,48.73
2022-08-28T11:36:28.289Z,47.87
2022-08-28T11:38:54.725Z,47.53
2022-08-28T11:41:24.856Z,47.55
2022-08-28T11:44:11.270Z,47.28
2022-08-28T11:46:39.867Z,47.36
2022-08-28T11:49:26.238Z,47.34
2022-08-28T11:52:35.094Z,48.00
2022-08-28T11:55:24.546Z,48.09
2022-08-28T11:58:17.747Z,48.70
2022-08-28T12:01:10.796Z,50.14
2022-08-28T12:03:40.967Z,49.74
2022-08-28T12:06:08.756Z,49.98
2022-08-28T12:08:44.104Z,50.15
2022-08-28T12:11:39.292Z,49.90
2022-08-28T12:14:40.522Z,50.09
2022-08-28T12:17:06.967Z,49.68
2022-08-28T12:19:56.286Z,50.54
2022-08-28T12:22:39.248Z,50.56
2022-08-28T12:25:22.335Z,49.90
2022-08-28T12:27:49.614Z,50.50
2022-08-28T12:30:28.638Z,50.68
2022-08-28T12:33:28.730Z,50.53
2022-08-28T12:36:02.757Z,50.11
2022-08-28T12:38:33.188Z,50.17
2022-08-28T12:41:01.608Z,50.24
2022-08-28T12:43:40.869Z,49.96
2022-08-28T12:46:26.968Z,49.19
2022-08-28T12:48:57.274Z,49.82
2022-08-28T12:51:25.729Z,48.65
2022-08-28T12:53:55.856Z,48.14
2022-08-28T12:56:25.260Z,47.47
2022-08-28T12:58:52.615Z,47.96
2022-08-28T13:01:33.866Z,48.05
2022-08-28T13:04:37.990Z,48.54
2022-08-28T13:07:17.303Z,47.19
2022-08-28T13:09:53.143Z,47.47
2022-08-28T13:12:32.007Z,46.67
2022-08-28T13:15:41.699Z,46.02
2022-08-28T13:18:08.323Z,45.26
2022-08-28T13:20:37.961Z,44.36
2022-08-28T13:23:05.107Z,43.89
2022-08-28T13:25:36.239Z,42.99
2022-08-28T13:28:14.964Z,42.72
2022-08-28T13:30:41.525Z,41.53
2022-08-28T13:33:24.263Z,40.51
2022-08-28T13:35:52.887Z,40.24
2022-08-28T13:38:21.866Z,39.81
2022-08-28T13:40:59.626Z,39.20
2022-08-28T13:43:29.920Z,38.57
2022-08-28T13:45:56.496Z,38.50
2022-08-28T13:48:27.402Z,38.07
2022-08-28T13:51:03.509Z,37.35
2022-08-28T13:53:32.248Z,36.67
2022-08-28T13:55:58.841Z,36.15
2022-08-28T13:58:25.898Z,36.06
2022-08-28T14:00:54.148Z,35.75
2022-08-28T14:03:21.244Z,35.22
2022-08-28T14:05:47.723Z,35.28
2022-08-28T14:08:14.318Z,34.67
2022-08-28T14:10:40.861Z,34.29
2022-08-28T14:13:07.326Z,33.67
2022-08-28T14:15:33.847Z,33.57
2022-08-28T14:18:00.514Z,33.28
2022-08-28T14:20:27.404Z,33.43
2022-08-28T14:22:53.885Z,33.45
2022-08-28T14:25:20.530Z,32.92
2022-08-28T14:27:47.031Z,32.39
2022-08-28T14:30:13.979Z,31.86
2022-08-28T14:32:40.501Z,31.36
2022-08-28T14:35:07.415Z,30.73
2022-08-28T14:37:33.950Z,30.57
2022-08-28T14:40:00.539Z,30.64
2022-08-28T14:42:27.345Z,30.04
2022-08-28T14:44:53.861Z,29.59
2022-08-28T14:47:20.538Z,29.84
2022-08-28T14:49:47.170Z,30.00
2022-08-28T14:52:13.697Z,30.67
2022-08-28T14:54:40.219Z,30.18
2022-08-28T14:57:06.789Z,30.22
2022-08-28T14:59:33.305Z,29.84
2022-08-28T15:02:01.071Z,29.75
2022-08-28T15:04:30.602Z,30.10
2022-08-28T15:06:59.282Z,29.63
2022-08-28T15:09:26.661Z,29.66
2022-08-28T15:11:53.226Z,29.25
2022-08-28T15:14:19.953Z,29.10
2022-08-28T15:16:47.869Z,28.73
2022-08-28T15:19:16.450Z,28.19
2022-08-28T15:21:55.166Z,28.38
2022-08-28T15:24:25.282Z,28.57
2022-08-28T15:26:52.233Z,28.27
2022-08-28T15:29:19.057Z,27.98
2022-08-28T15:31:48.293Z,28.27
2022-08-28T15:34:19.101Z,28.73
2022-08-28T15:36:54.715Z,28.13
2022-08-28T15:39:23.944Z,28.15
2022-08-28T15:41:50.892Z,27.79
2022-08-28T15:44:17.393Z,27.71
2022-08-28T15:46:52.552Z,28.14
2022-08-28T15:49:25.922Z,28.06
2022-08-28T15:51:53.609Z,27.81
2022-08-28T15:54:21.994Z,28.30
2022-08-28T15:56:49.762Z,29.12
2022-08-28T15:59:20.157Z,29.62
2022-08-28T16:01:47.398Z,30.39
2022-08-28T16:04:14.202Z,30.74
2022-08-28T16:06:41.058Z,30.44
2022-08-28T16:09:09.381Z,30.50
2022-08-28T16:11:36.734Z,30.51
2022-08-28T16:14:05.269Z,30.53
2022-08-28T16:16:32.744Z,30.43
2022-08-28T16:19:00.301Z,30.49
2022-08-28T16:21:28.876Z,31.15
2022-08-28T16:23:55.789Z,32.25
2022-08-28T16:26:22.306Z,32.90
2022-08-28T16:28:49.159Z,34.18
2022-08-28T16:31:18.874Z,34.67
2022-08-28T16:33:45.881Z,35.12
2022-08-28T16:36:14.086Z,35.86
2022-08-28T16:38:43.200Z,36.61
2022-08-28T16:41:19.601Z,36.80
2022-08-28T16:43:47.244Z,36.99
2022-08-28T16:46:24.121Z,37.82
2022-08-28T16:48:51.861Z,38.99
2022-08-28T16:51:19.839Z,39.38
2022-08-28T16:53:46.699Z,40.00
2022-08-28T16:56:16.921Z,40.22
2022-08-28T16:58:43.833Z,40.40
2022-08-28T17:01:12.217Z,40.43
2022-08-28T17:03:39.582Z,40.98
2022-08-28T17:06:13.312Z,41.13
2022-08-28T17:08:39.875Z,41.54
2022-08-28T17:11:06.776Z,41.83
2022-08-28T17:13:34.655Z,42.32
2022-08-28T17:16:01.423Z,42.60
2022-08-28T17:18:28.719Z,43.03
2022-08-28T17:20:55.217Z,43.17
2022-08-28T17:23:21.746Z,43.48
2022-08-28T17:25:48.311Z,43.44
2022-08-28T17:28:14.946Z,43.69
2022-08-28T17:30:41.519Z,44.06
2022-08-28T17:33:08.023Z,44.78
2022-08-28T17:35:41.950Z,44.26
2022-08-28T17:38:08.938Z,44.84
2022-08-28T17:40:35.508Z,44.91
2022-08-28T17:43:02.161Z,45.27
2022-08-28T17:45:29.113Z,45.33
2022-08-28T17:47:55.628Z,45.47
2022-08-28T17:50:22.351Z,45.33
2022-08-28T17:52:48.958Z,45.56
2022-08-28T17:55:17.012Z,45.84
2022-08-28T17:57:43.613Z,46.38
2022-08-28T18:00:12.607Z,45.91
2022-08-28T18:02:39.742Z,46.13
2022-08-28T18:05:08.176Z,46.40
2022-08-28T18:07:34.791Z,46.27
2022-08-28T18:10:01.300Z,46.06
2022-08-28T18:12:28.023Z,45.86
2022-08-28T18:14:54.534Z,45.90
2022-08-28T18:17:21.093Z,46.08
2022-08-28T18:19:47.602Z,45.56
2022-08-28T18:22:14.651Z,46.63
2022-08-28T18:24:41.614Z,46.62
2022-08-28T18:27:08.129Z,46.21
2022-08-28T18:29:37.869Z,46.17
2022-08-28T18:32:05.634Z,45.73
2022-08-28T18:34:32.199Z,45.87
2022-08-28T18:36:59.426Z,46.25
2022-08-28T18:39:29.410Z,46.72
2022-08-28T18:41:57.509Z,46.91
2022-08-28T18:44:24.495Z,46.87
2022-08-28T18:46:51.362Z,47.79
2022-08-28T18:49:18.001Z,46.92
2022-08-28T18:51:45.505Z,47.57
2022-08-28T18:54:18.039Z,47.70
2022-08-28T18:56:46.873Z,48.17
2022-08-28T18:59:15.574Z,48.44
2022-08-28T19:01:42.382Z,47.99
2022-08-28T19:04:09.015Z,48.33
2022-08-28T19:06:35.604Z,48.84
2022-08-28T19:09:02.834Z,49.06
2022-08-28T19:11:29.360Z,49.53
2022-08-28T19:13:56.089Z,49.49
2022-08-28T19:16:22.688Z,48.81
2022-08-28T19:18:52.170Z,48.18
2022-08-28T19:21:19.624Z,47.25
2022-08-28T19:23:56.155Z,47.17
2022-08-28T19:26:25.100Z,47.23
2022-08-28T19:28:51.916Z,47.68
2022-08-28T19:31:18.542Z,47.54
2022-08-28T19:33:46.662Z,47.25
2022-08-28T19:36:14.214Z,46.64
2022-08-28T19:38:41.357Z,46.99
2022-08-28T19:41:10.751Z,46.31
2022-08-28T19:43:44.269Z,46.23
2022-08-28T19:46:19.233Z,46.33
2022-08-28T19:48:48.355Z,45.55
2022-08-28T19:51:18.290Z,45.60
2022-08-28T19:53:57.726Z,45.40
2022-08-28T19:56:27.857Z,46.66
2022-08-28T19:58:58.819Z,47.95
2022-08-28T20:01:27.498Z,48.62
2022-08-28T20:03:54.037Z,48.25
2022-08-28T20:06:20.572Z,48.11
2022-08-28T20:08:47.043Z,48.10
2022-08-28T20:11:21.206Z,47.84
2022-08-28T20:13:47.705Z,47.70
2022-08-28T20:16:14.208Z,47.67
2022-08-28T20:18:40.728Z,47.60
2022-08-28T20:21:11.014Z,47.93
2022-08-28T20:23:38.226Z,47.46
2022-08-28T20:26:04.919Z,47.37
2022-08-28T20:28:31.413Z,47.23
2022-08-28T20:30:58.114Z,47.71
2022-08-28T20:33:24.666Z,47.28
2022-08-28T20:36:00.308Z,47.14
2022-08-28T20:38:26.844Z,46.89
2022-08-28T20:41:01.578Z,47.29
2022-08-28T20:43:28.051Z,47.12
2022-08-28T20:45:54.594Z,46.77
2022-08-28T20:48:21.120Z,46.51
2022-08-28T20:50:48.114Z,47.69
2022-08-28T20:53:36.976Z,49.30
2022-08-28T20:56:08.685Z,48.36
2022-08-28T20:58:35.778Z,48.33
2022-08-28T21:01:02.318Z,47.92
2022-08-28T21:03:28.908Z,48.07
2022-08-28T21:05:55.400Z,48.55
2022-08-28T21:08:21.909Z,48.50
2022-08-28T21:10:48.423Z,48.26
2022-08-28T21:13:15.050Z,48.06
2022-08-28T21:15:41.537Z,48.12
2022-08-28T21:18:08.131Z,48.11
2022-08-28T21:20:36.922Z,48.30
2022-08-28T21:23:05.720Z,48.07
2022-08-28T21:25:32.663Z,48.71
2022-08-28T21:27:59.155Z,48.83
2022-08-28T21:30:30.684Z,48.51
2022-08-28T21:32:57.165Z,49.03
2022-08-28T21:35:23.773Z,48.92
2022-08-28T21:37:50.262Z,48.98
2022-08-28T21:40:18.373Z,49.10
2022-08-28T21:42:45.076Z,49.63
2022-08-28T21:45:12.437Z,49.46
2022-08-28T21:47:40.241Z,49.70
2022-08-28T21:50:08.393Z,49.50
2022-08-28T21:52:35.303Z,50.00
2022-08-28T21:55:09.215Z,50.25
2022-08-28T21:57:36.084Z,50.40
2022-08-28T22:00:09.213Z,50.81
2022-08-28T22:02:35.936Z,51.13
2022-08-28T22:05:02.593Z,51.01
2022-08-28T22:07:29.103Z,51.42
2022-08-28T22:09:55.733Z,51.33
2022-08-28T22:12:22.332Z,51.71
2022-08-28T22:14:48.840Z,51.79
2022-08-28T22:17:15.418Z,51.63
2022-08-28T22:19:42.092Z,51.84
2022-08-28T22:22:12.126Z,52.02
2022-08-28T22:24:38.667Z,52.25
2022-08-28T22:27:05.760Z,52.48
2022-08-28T22:29:32.577Z,52.37
2022-08-28T22:31:59.129Z,52.26
2022-08-28T22:34:25.685Z,52.66
2022-08-28T22:36:52.152Z,52.56
2022-08-28T22:39:18.649Z,53.03
2022-08-28T22:41:45.153Z,53.11
2022-08-28T22:44:11.750Z,53.04
2022-08-28T22:46:38.325Z,53.21
2022-08-28T22:49:04.883Z,53.09
2022-08-28T22:51:34.308Z,53.01
2022-08-28T22:54:00.885Z,53.27
2022-08-28T22:56:27.368Z,53.42
2022-08-28T22:58:53.887Z,53.56
2022-08-28T23:01:25.091Z,53.43
2022-08-28T23:03:51.652Z,53.87
2022-08-28T23:06:18.732Z,53.96
2022-08-28T23:08:45.262Z,54.29
2022-08-28T23:11:11.826Z,53.89
2022-08-28T23:13:39.801Z,54.14
2022-08-28T23:16:07.726Z,54.12
2022-08-28T23:18:57.563Z,54.52
2022-08-28T23:21:23.884Z,55.04
2022-08-28T23:23:54.054Z,55.36
2022-08-28T23:26:20.915Z,57.08
2022-08-28T23:28:47.466Z,58.09
2022-08-28T23:31:14.063Z,62.15
2022-08-28T23:33:40.884Z,60.64
2022-08-28T23:36:07.781Z,59.86
2022-08-28T23:38:42.839Z,59.72
2022-08-28T23:41:11.039Z,59.59
2022-08-28T23:43:38.161Z,59.79
2022-08-28T23:46:04.919Z,59.61
2022-08-28T23:48:31.468Z,60.34
2022-08-28T23:50:58.554Z,60.15
2022-08-28T23:53:25.700Z,59.74
2022-08-28T23:55:52.213Z,60.60
2022-08-28T23:58:20.742Z,60.17
